Latest Weather Observations for Nuriootpa

IDS60901

Issued at 2:41 pm CDT Thursday 29 January 2015 (issued every 10 minutes, with the page automatically refreshed every 10 minutes)

About weather observations | Map of Adelaide area stations | Latest observations for Adelaide area | Other Formats
Station Details ID: 023373 Name: NURIOOTPA VITICULTURAL Lat: -34.48 Lon: 139.01 Height: 275.0 m
Data from the previous 72 hours. | See also: Recent months at Nuriootpa
Date/Time
CDT
Tmp

°C
App
Tmp
°C
Dew
Point
°C
Rel
Hum
%
Delta-T

°C
Wind Press
QNH
hPa
Press
MSL
hPa
Rain
since
9 am
mm
Dir
 
Spd
km/h
Gust
km/h
Spd
kts
Gust
kts
29/02:30pm 25.5 19.6 -0.7 18 12.1 SE 20 32 11 17 1016.5 1015.4 0.0
29/02:00pm 24.8 19.2 1.3 21 11.2 ESE 20 33 11 18 1016.7 1015.6 0.0
29/01:30pm 24.6 20.3 3.0 24 10.6 E 15 28 8 15 1017.1 1016.0 0.0
29/01:00pm 23.0 18.2 2.7 26 9.8 ESE 17 32 9 17 1017.6 1016.5 0.0
29/12:30pm 23.0 18.1 4.0 29 9.4 ESE 19 30 10 16 1017.7 1016.6 0.0
29/12:00pm 22.5 18.1 5.0 32 8.8 SE 17 26 9 14 1018.1 1016.9 0.0
29/11:30am 21.6 17.3 5.3 34 8.2 ESE 17 26 9 14 1018.2 1017.0 0.0
29/11:00am 20.6 16.3 5.4 37 7.6 ESE 17 28 9 15 1018.3 1017.1 0.0
29/10:30am 20.1 15.3 5.7 39 7.2 ESE 20 30 11 16 1018.2 1017.0 0.0
29/10:00am 18.7 13.5 5.3 41 6.6 ESE 22 32 12 17 1018.3 1017.1 0.0
29/09:30am 18.7 14.9 5.6 42 6.5 ESE 15 24 8 13 1018.4 1017.2 0.0
29/09:00am 17.6 13.4 5.9 46 5.8 E 17 26 9 14 1018.4 1017.2 0.0
29/08:30am 16.5 12.3 5.6 48 5.3 ESE 17 30 9 16 1018.1 1016.9 0.0
29/08:00am 15.7 10.2 5.9 52 4.8 ESE 24 35 13 19 1017.7 1016.6 0.0
29/07:30am 14.8 9.6 5.7 54 4.4 ESE 22 39 12 21 1017.4 1016.3 0.0
29/07:00am 14.1 9.6 6.0 58 3.9 ESE 19 28 10 15 1017.2 1016.1 0.0
29/06:30am 14.2 9.7 5.9 57 4.0 ESE 19 30 10 16 1016.8 1015.7 0.0
29/06:00am 14.6 10.5 6.4 58 4.0 ESE 17 32 9 17 1016.7 1015.6 0.0
29/05:30am 14.9 10.5 6.6 57 4.1 ESE 19 28 10 15 1016.4 1015.2 0.0
29/05:00am 15.2 10.8 6.7 57 4.2 ESE 19 30 10 16 1016.1 1014.9 0.0
29/04:30am 15.5 11.2 6.9 56 4.3 ESE 19 28 10 15 1015.9 1014.7 0.0
29/04:00am 16.2 11.9 6.8 53 4.7 ESE 19 28 10 15 1015.9 1014.7 0.0
29/03:30am 16.3 12.5 7.6 56 4.4 ESE 17 28 9 15 1015.8 1014.6 0.0
29/03:00am 16.3 12.8 8.6 60 4.0 ESE 17 26 9 14 1015.6 1014.4 0.0
29/02:30am 16.3 13.4 9.5 64 3.6 ESE 15 22 8 12 1015.5 1014.3 0.0
29/02:00am 16.5 13.3 9.9 65 3.5 SE 17 24 9 13 1015.6 1014.4 0.0
29/01:30am 16.4 13.1 10.9 70 3.0 SE 19 28 10 15 1015.6 1014.4 0.0
29/01:00am 16.5 13.2 11.0 70 3.0 SE 19 28 10 15 1015.6 1014.4 0.0
29/12:30am 15.9 13.8 11.3 74 2.5 SE 13 15 7 8 1015.9 1014.7 0.0
29/12:00am 16.2 15.3 11.2 72 2.7 SSE 7 11 4 6 1016.2 1015.0 0.0
 
Date/Time
CDT
Tmp

°C
App
Tmp
°C
Dew
Point
°C
Rel
Hum
%
Delta-T

°C
Wind Press
QNH
hPa
Press
MSL
hPa
Rain
since
9 am
mm
Dir
 
Spd
km/h
Gust
km/h
Spd
kts
Gust
kts
28/11:30pm 16.6 14.0 10.7 68 3.2 SSE 15 22 8 12 1016.3 1015.1 0.0
28/11:00pm 16.5 14.1 10.1 66 3.4 SSE 13 19 7 10 1016.3 1015.1 0.0
28/10:30pm 16.6 14.0 9.4 62 3.8 S 13 20 7 11 1016.5 1015.4 0.0
28/10:00pm 16.9 14.3 9.3 61 4.0 SSW 13 17 7 9 1016.4 1015.2 0.0
28/09:30pm 17.5 14.8 8.9 57 4.5 S 13 17 7 9 1016.4 1015.2 0.0
28/09:00pm 18.4 16.0 8.5 52 5.2 S 11 17 6 9 1016.1 1014.9 0.0
28/08:30pm 19.4 16.4 7.9 47 6.0 SSE 13 17 7 9 1015.9 1014.7 0.0
28/08:00pm 21.0 18.3 7.4 41 7.1 SSE 11 17 6 9 1015.9 1014.7 0.0
28/07:30pm 21.5 17.3 7.6 40 7.3 SSE 19 28 10 15 1015.7 1014.5 0.0
28/07:00pm 22.3 18.0 6.9 37 8.0 SSE 19 26 10 14 1015.5 1014.3 0.0
28/06:30pm 23.3 18.1 5.4 31 9.1 SE 22 32 12 17 1015.2 1014.0 0.0
28/06:00pm 23.2 17.4 4.4 29 9.4 SE 24 35 13 19 1015.2 1014.0 0.0
28/05:30pm 23.7 18.8 4.9 29 9.5 SE 20 33 11 18 1015.1 1013.9 0.0
28/05:00pm 24.1 19.3 4.4 28 9.9 SE 19 30 10 16 1015.1 1013.9 0.0
28/04:30pm 24.4 18.7 3.0 25 10.5 SE 22 35 12 19 1015.2 1014.0 0.0
28/04:00pm 24.5 18.7 2.5 24 10.7 SE 22 39 12 21 1015.3 1014.1 0.0
28/03:30pm 24.8 18.8 1.0 21 11.3 SE 22 39 12 21 1015.4 1014.2 0.0
28/03:00pm 24.0 17.1 0.4 21 11.0 SE 26 37 14 20 1015.8 1014.6 0.0
28/02:30pm 23.7 17.6 0.1 21 10.9 SE 22 35 12 19 1016.2 1015.0 0.0
28/02:00pm 22.9 17.6 1.8 25 10.0 SE 19 30 10 16 1016.5 1015.4 0.0
28/01:30pm 22.0 16.9 2.9 28 9.2 SE 19 28 10 15 1016.7 1015.6 0.0
28/01:00pm 21.1 15.7 2.6 29 8.8 SE 20 32 11 17 1017.0 1015.9 0.0
28/12:30pm 20.1 14.9 3.7 34 7.9 SSE 20 32 11 17 1017.2 1016.1 0.0
28/12:00pm 19.1 14.2 3.9 36 7.3 SSE 19 33 10 18 1017.5 1016.4 0.0
28/11:30am 18.3 13.5 4.7 40 6.6 SE 19 30 10 16 1017.7 1016.6 0.0
28/11:00am 16.9 12.0 5.1 45 5.7 SE 20 30 11 16 1018.3 1017.1 0.0
28/10:30am 16.0 11.6 4.9 47 5.3 SE 17 28 9 15 1018.4 1017.2 0.0
28/10:00am 15.8 11.2 5.5 50 5.0 SE 19 30 10 16 1018.3 1017.1 0.0
28/09:30am 14.1 9.5 5.8 57 4.0 SE 19 28 10 15 1018.3 1017.1 0.0
28/09:00am 13.7 8.9 5.8 59 3.8 ESE 20 32 11 17 1018.2 1017.0 0.0
28/08:30am 13.0 8.3 6.1 63 3.3 SE 20 32 11 17 1018.2 1017.0 0.0
28/08:00am 12.2 7.5 6.1 66 2.9 ESE 20 37 11 20 1017.9 1016.8 0.0
28/07:30am 11.5 7.4 6.3 70 2.5 ESE 17 30 9 16 1017.7 1016.6 0.0
28/07:00am 10.5 6.4 6.0 74 2.1 ESE 17 26 9 14 1017.0 1015.9 0.0
28/06:30am 10.3 5.5 5.8 73 2.1 SE 20 35 11 19 1016.5 1015.4 0.0
28/06:00am 10.5 5.3 5.6 71 2.3 SE 22 37 12 20 1016.0 1014.8 0.0
28/05:30am 10.7 5.5 5.3 69 2.5 SE 22 33 12 18 1015.8 1014.6 0.0
28/05:00am 11.0 6.2 5.4 68 2.6 ESE 20 30 11 16 1015.9 1014.7 0.0
28/04:30am 11.3 7.8 5.5 67 2.7 ESE 13 26 7 14 1016.1 1014.9 0.0
28/04:00am 11.5 8.0 5.5 66 2.8 SSE 13 26 7 14 1016.1 1014.9 0.0
28/03:32am 11.9 5.6 5.5 65 3.0 SE 28 46 15 25 1016.1 1014.9 0.0
28/03:30am 11.9 5.2 5.5 65 3.0 SE 30 46 16 25 1016.1 1014.9 0.0
28/03:24am 12.0 5.7 5.6 65 3.0 SE 28 46 15 25 1016.2 1015.0 0.0
28/03:00am 12.2 6.7 5.9 65 3.0 SE 24 43 13 23 1016.4 1015.2 0.0
28/02:30am 12.5 7.5 6.3 66 3.0 SE 22 39 12 21 1016.6 1015.5 0.0
28/02:00am 12.7 8.3 7.2 69 2.7 SSE 20 30 11 16 1016.8 1015.7 0.0
28/01:30am 13.0 8.0 8.2 72 2.4 SSE 24 35 13 19 1017.0 1015.9 0.0
28/01:00am 13.2 7.3 9.1 76 2.1 SSE 30 43 16 23 1017.1 1016.0 0.0
28/12:30am 13.4 7.5 9.1 75 2.2 SE 30 48 16 26 1016.9 1015.8 0.0
28/12:28am 13.3 7.4 9.2 76 2.1 SE 30 48 16 26 1016.9 1015.8 0.0
28/12:00am 13.5 7.9 8.8 73 2.4 SE 28 37 15 20 1017.1 1016.0 0.0
 
Date/Time
CDT
Tmp

°C
App
Tmp
°C
Dew
Point
°C
Rel
Hum
%
Delta-T

°C
Wind Press
QNH
hPa
Press
MSL
hPa
Rain
since
9 am
mm
Dir
 
Spd
km/h
Gust
km/h
Spd
kts
Gust
kts
27/11:30pm 13.5 8.3 8.8 73 2.4 SE 26 39 14 21 1017.1 1016.0 0.0
27/11:00pm 13.5 8.6 8.4 71 2.6 SSE 24 41 13 22 1017.4 1016.3 0.0
27/10:30pm 13.6 9.4 8.2 70 2.7 SSE 20 32 11 17 1017.4 1016.3 0.0
27/10:00pm 13.8 9.6 8.3 69 2.8 SSE 20 32 11 17 1017.5 1016.4 0.0
27/09:30pm 13.9 10.3 8.2 68 2.9 S 17 26 9 14 1017.3 1016.2 0.0
27/09:00pm 14.6 9.9 7.6 63 3.5 SSE 22 32 12 17 1017.0 1015.9 0.0
27/08:30pm 15.2 9.6 7.2 59 4.0 S 26 35 14 19 1016.7 1015.6 0.0
27/08:00pm 16.4 11.0 6.3 51 5.0 S 24 33 13 18 1016.3 1015.1 0.0
27/07:30pm 17.6 12.3 4.8 42 6.2 S 22 35 12 19 1016.2 1015.0 0.0
27/07:00pm 18.5 13.3 5.3 42 6.5 S 22 33 12 18 1015.9 1014.7 0.0
27/06:30pm 19.3 14.0 5.1 39 7.0 SSE 22 37 12 20 1015.6 1014.4 0.0
27/06:00pm 20.1 14.3 4.3 35 7.7 SSE 24 33 13 18 1015.7 1014.5 0.0
27/05:30pm 21.1 15.3 4.2 33 8.3 S 24 35 13 19 1015.5 1014.3 0.0
27/05:00pm 21.9 16.7 3.4 29 9.0 SSE 20 33 11 18 1015.3 1014.1 0.0
27/04:30pm 21.5 15.7 2.3 28 9.1 S 22 37 12 20 1015.4 1014.2 0.0
27/04:00pm 21.9 16.4 2.0 27 9.4 S 20 32 11 17 1015.5 1014.3 0.0
27/03:30pm 21.3 15.8 2.0 28 9.1 S 20 35 11 19 1015.7 1014.5 0.0
27/03:00pm 21.4 15.5 1.8 27 9.2 S 22 32 12 17 1016.1 1014.9 0.0
27/02:30pm 21.2 15.4 2.4 29 8.9 SSE 22 35 12 19 1016.4 1015.2 0.0
27/02:00pm 20.8 15.4 2.7 30 8.6 S 20 35 11 19 1016.4 1015.2 0.0
27/01:30pm 20.3 14.6 2.8 31 8.3 SSE 22 37 12 20 1016.5 1015.4 0.0
27/01:00pm 19.6 13.6 3.2 33 7.8 SSE 24 35 13 19 1017.0 1015.9 0.0
27/12:30pm 19.3 14.1 3.3 34 7.6 SSE 20 35 11 19 1017.3 1016.2 0.0
27/12:00pm 18.8 13.8 3.7 36 7.2 SE 19 32 10 17 1017.5 1016.4 0.0
27/11:30am 18.4 13.5 4.0 38 6.9 SE 19 28 10 15 1017.7 1016.6 0.0
27/11:00am 17.6 11.7 3.9 40 6.5 SE 24 37 13 20 1017.9 1016.8 0.0
27/10:30am 16.6 11.2 4.4 44 5.8 ESE 22 37 12 20 1018.2 1017.0 0.0
27/10:00am 15.8 10.5 5.2 49 5.1 SE 22 37 12 20 1018.3 1017.1 0.0
27/09:30am 15.5 10.3 5.3 50 4.9 ESE 22 33 12 18 1018.5 1017.3 0.0
27/09:00am 14.4 9.6 5.4 54 4.3 SE 20 33 11 18 1018.5 1017.3 0.0
27/08:30am 13.5 9.0 6.0 60 3.6 SE 19 30 10 16 1018.3 1017.1 0.0
27/08:00am 12.3 7.6 6.2 66 2.9 ESE 20 30 11 16 1018.4 1017.2 0.0
27/07:30am 11.6 7.5 6.1 69 2.6 SE 17 32 9 17 1017.9 1016.8 0.0
27/07:00am 10.8 6.6 5.9 72 2.3 ESE 17 28 9 15 1017.7 1016.6 0.0
27/06:30am 10.6 6.8 5.7 72 2.3 ESE 15 30 8 16 1017.6 1016.5 0.0
27/06:00am 10.4 5.8 5.7 72 2.2 SE 19 32 10 17 1017.2 1016.1 0.0
27/05:30am 10.7 5.9 5.8 72 2.3 SE 20 30 11 16 1016.9 1015.8 0.0
27/05:00am 10.9 6.1 5.8 71 2.4 SE 20 32 11 17 1016.6 1015.5 0.0
27/04:30am 11.1 6.0 6.0 71 2.4 SE 22 33 12 18 1016.4 1015.2 0.0
27/04:00am 11.5 6.0 5.8 68 2.7 SE 24 41 13 22 1016.4 1015.2 0.0
27/03:30am 11.8 6.4 6.4 69 2.6 SE 24 41 13 22 1016.4 1015.2 0.0
27/03:00am 11.9 6.8 7.6 75 2.1 SE 24 35 13 19 1016.5 1015.4 0.0
27/02:30am 11.9 7.2 7.6 75 2.1 SE 22 33 12 18 1016.8 1015.7 0.0
27/02:00am 12.0 8.2 7.7 75 2.1 SE 17 28 9 15 1017.1 1016.0 0.0
27/01:30am 12.2 8.0 7.5 73 2.3 SSE 19 30 10 16 1017.3 1016.2 0.0
27/01:00am 12.3 7.5 7.2 71 2.5 SE 22 33 12 18 1017.3 1016.2 0.0
27/12:30am 12.3 7.0 7.0 70 2.6 SE 24 37 13 20 1017.5 1016.4 0.0
27/12:00am 12.6 7.3 6.6 67 2.9 SE 24 41 13 22 1017.8 1016.7 0.0
 
Date/Time
CDT
Tmp

°C
App
Tmp
°C
Dew
Point
°C
Rel
Hum
%
Delta-T

°C
Wind Press
QNH
hPa
Press
MSL
hPa
Rain
since
9 am
mm
Dir
 
Spd
km/h
Gust
km/h
Spd
kts
Gust
kts
26/11:30pm 12.6 8.0 6.6 67 2.9 SE 20 32 11 17 1017.8 1016.7 0.0
26/11:00pm 12.8 7.8 6.4 65 3.1 SSE 22 35 12 19 1017.8 1016.7 0.0
26/10:30pm 13.0 8.6 6.4 64 3.2 SE 19 30 10 16 1017.9 1016.8 0.0
26/10:00pm 13.4 8.6 5.6 59 3.7 SE 20 32 11 17 1017.7 1016.6 0.0
26/09:30pm 13.9 8.6 5.0 55 4.2 SE 22 33 12 18 1017.5 1016.4 0.0
26/09:00pm 14.3 9.4 4.2 50 4.7 SE 19 30 10 16 1017.3 1016.2 0.0
26/08:30pm 15.2 10.1 4.1 47 5.2 SE 20 28 11 15 1017.2 1016.1 0.0
26/08:00pm 16.4 10.8 3.6 42 6.0 SE 22 30 12 16 1016.9 1015.8 0.0
26/07:30pm 17.8 13.2 3.7 39 6.7 SSE 17 24 9 13 1016.6 1015.5 0.0
26/07:00pm 18.7 14.1 3.6 36 7.2 SE 17 26 9 14 1016.2 1015.0 0.0
26/06:30pm 18.7 13.6 3.3 36 7.3 SSE 19 26 10 14 1016.0 1014.8 0.0
26/06:00pm 19.0 14.9 4.1 37 7.2 SSE 15 24 8 13 1016.0 1014.8 0.0
26/05:30pm 19.0 14.4 3.8 36 7.3 SSE 17 26 9 14 1015.9 1014.7 0.0
26/05:00pm 18.9 15.5 3.9 37 7.2 SSE 11 17 6 9 1016.3 1015.1 0.0
26/04:30pm 19.2 15.5 4.7 38 7.1 SSE 13 20 7 11 1016.4 1015.2 0.0
26/04:00pm 18.8 15.6 4.9 40 6.8 SSE 11 20 6 11 1016.6 1015.5 0.0
26/03:30pm 18.6 14.7 5.2 41 6.6 SSE 15 26 8 14 1016.6 1015.5 0.0
26/03:00pm 18.4 13.8 5.4 42 6.4 SE 19 30 10 16 1016.8 1015.7 0.0

Latest Capital City Observations: Canberra | Sydney | Melbourne | Brisbane | Adelaide | Perth | Hobart | Darwin

Other Formats:

Comma delimited format used in spreadsheet applications
http://www.bom.gov.au/fwo/IDS60901/IDS60901.94681.axf

JavaScript Object Notation format (JSON) in row-major order
http://www.bom.gov.au/fwo/IDS60901/IDS60901.94681.json